VTPH/HHQ METAR and TAF weather

Enter ICAO airport designator
Station Type Date Time Source
VTPH METAR 2020/01/24 03:00 UTC NOAA

VTPH 240300Z 22006KT 140V270 CAVOK 31/22 Q1014 NOSIG


Station Type Date Time Source
VTPH Decoded METAR 2020/01/24 03:00 UTC NOAA

Hua Hin, Thailand (VTPH) 12-35N 099-57E 6M
Jan 23, 2020 - 10:00 PM EST / 2020.01.24 0300 UTC
Wind: from the SW (220 degrees) at 7 MPH (6 KT) (direction variable):0
Visibility: greater than 7 mile(s):0
Temperature: 87 F (31 C)
Heat index: 92.3 F (33.5 C):1
Dew Point: 71 F (22 C)
Relative Humidity: 58%
Pressure (altimeter): 29.94 in. Hg (1014 hPa)
ob: VTPH 240300Z 22006KT 140V270 CAVOK 31/22 Q1014 NOSIG
cycle: 3

Station Type Date Time Source
VTPH TAF 2020/01/23 18:00 UTC NOAA

TAF VTPH 231700Z 2318/2418 00000KT 8000 FEW030
BECMG 2402/2404 13008KT
BECMG 2414/2416 00000KT

Example: see airport list